Time;durP1;ratioP1;P1;durP2;ratioP2;P2;SDS_P1;SDS_P2;PMS_P1;PMS_P2;Temp;Humidity;BMP_temperature;BMP_pressure;BME280_temperature;BME280_humidity;BME280_pressure;Samples;Min_cycle;Max_cycle;Signal;HPM_P1;HPM_P2
2023/05/05 00:00:54;;;;;;;1.87;1.03;;;9.40;99.90;;;;;;5078913;28;20566;-49
2023/05/05 00:03:22;;;;;;;5.27;1.13;;;9.40;99.90;;;;;;5082623;28;20286;-49
2023/05/05 00:05:49;;;;;;;3.07;1.20;;;9.40;99.90;;;;;;5079200;28;20607;-46
2023/05/05 00:08:17;;;;;;;2.67;1.40;;;9.30;99.90;;;;;;5073260;28;20221;-51
2023/05/05 00:10:47;;;;;;;1.93;1.30;;;9.30;99.90;;;;;;5064495;28;20259;-47
2023/05/05 00:13:14;;;;;;;1.40;0.90;;;9.30;99.90;;;;;;5079385;28;20182;-49
2023/05/05 00:15:42;;;;;;;3.87;1.23;;;9.30;99.90;;;;;;5085459;28;20504;-51
2023/05/05 00:18:08;;;;;;;1.80;1.07;;;9.30;99.90;;;;;;5068717;28;20230;-52
2023/05/05 00:20:36;;;;;;;1.53;1.27;;;9.20;99.90;;;;;;5076973;28;20206;-52
2023/05/05 00:23:03;;;;;;;1.37;1.13;;;9.20;99.90;;;;;;5071929;28;20210;-53
2023/05/05 00:25:30;;;;;;;2.07;1.23;;;9.20;99.90;;;;;;5066150;28;20205;-51
2023/05/05 00:28:21;;;;;;;3.63;1.20;;;9.20;99.90;;;;;;5082921;28;20229;-50
2023/05/05 00:30:48;;;;;;;1.10;0.80;;;9.20;99.90;;;;;;5084112;28;20190;-51
2023/05/05 00:33:15;;;;;;;4.80;1.27;;;9.20;99.90;;;;;;5067892;28;20233;-53
2023/05/05 00:35:42;;;;;;;1.47;1.23;;;9.10;99.90;;;;;;5076485;28;20181;-52
2023/05/05 00:38:09;;;;;;;2.07;1.20;;;9.10;99.90;;;;;;5075973;28;20237;-53
2023/05/05 00:40:36;;;;;;;2.30;1.10;;;9.10;99.90;;;;;;5084235;28;20680;-51
2023/05/05 00:43:04;;;;;;;4.40;1.30;;;9.10;99.90;;;;;;5052620;28;20468;-49
2023/05/05 00:45:33;;;;;;;5.43;1.37;;;9.10;99.90;;;;;;5082266;28;20194;-50
2023/05/05 00:48:00;;;;;;;1.33;1.00;;;9.10;99.90;;;;;;5067419;28;20930;-51
2023/05/05 00:50:49;;;;;;;2.63;1.30;;;9.00;99.90;;;;;;5070641;28;20204;-53
2023/05/05 00:53:17;;;;;;;1.30;1.20;;;9.00;99.90;;;;;;5079210;28;20336;-52
2023/05/05 00:55:45;;;;;;;1.53;1.00;;;9.00;99.90;;;;;;5078404;28;20204;-52
2023/05/05 00:58:13;;;;;;;3.37;1.67;;;8.90;99.90;;;;;;5065975;28;20224;-53
2023/05/05 01:00:41;;;;;;;3.53;1.20;;;8.90;99.90;;;;;;5082190;28;20216;-52
2023/05/05 01:03:11;;;;;;;3.07;1.10;;;8.90;99.90;;;;;;5073081;28;20213;-54
2023/05/05 01:05:56;;;;;;;2.73;1.50;;;8.90;99.90;;;;;;5072156;28;20692;-53
2023/05/05 01:08:41;;;;;;;3.27;1.27;;;8.90;99.90;;;;;;5079651;28;20214;-52
2023/05/05 01:11:17;;;;;;;2.70;1.60;;;8.80;99.90;;;;;;5073869;28;20819;-50
2023/05/05 01:13:55;;;;;;;3.03;1.17;;;8.80;99.90;;;;;;5062249;28;20289;-50
2023/05/05 01:16:26;;;;;;;4.30;1.27;;;8.80;99.90;;;;;;5075356;28;20197;-50
2023/05/05 01:19:00;;;;;;;3.07;1.30;;;8.70;99.90;;;;;;5065544;28;20743;-52
2023/05/05 01:21:35;;;;;;;4.60;1.83;;;8.70;99.90;;;;;;5082288;28;20273;-54
2023/05/05 01:24:17;;;;;;;3.00;1.20;;;8.70;99.90;;;;;;5078194;28;20213;-51
2023/05/05 01:26:55;;;;;;;3.60;1.13;;;8.70;99.90;;;;;;5082454;28;20200;-55
2023/05/05 01:29:37;;;;;;;5.07;1.43;;;8.60;99.90;;;;;;5059130;28;20221;-52
2023/05/05 01:32:09;;;;;;;4.00;1.50;;;8.60;99.90;;;;;;5066846;28;20924;-50
2023/05/05 01:34:41;;;;;;;2.33;1.60;;;8.60;99.90;;;;;;5084262;28;20190;-51
2023/05/05 01:37:13;;;;;;;5.17;1.73;;;8.60;99.90;;;;;;5073634;28;20198;-52
2023/05/05 01:39:43;;;;;;;5.10;1.73;;;8.60;99.90;;;;;;5080222;28;20201;-50
2023/05/05 01:42:13;;;;;;;3.47;1.60;;;8.60;99.90;;;;;;5079596;28;20465;-53
2023/05/05 01:44:43;;;;;;;4.37;1.67;;;8.60;99.90;;;;;;5052567;28;20198;-51
2023/05/05 01:47:14;;;;;;;3.80;1.60;;;8.60;99.90;;;;;;5073956;28;20193;-54
2023/05/05 01:50:02;;;;;;;3.30;1.50;;;8.60;99.90;;;;;;5071558;28;20216;-53
2023/05/05 01:52:30;;;;;;;3.93;1.37;;;8.60;99.90;;;;;;5083388;28;20205;-54
2023/05/05 01:54:58;;;;;;;3.63;1.43;;;8.60;99.90;;;;;;5080412;28;20190;-52
2023/05/05 01:57:30;;;;;;;5.80;1.50;;;8.60;99.90;;;;;;5070996;28;20297;-52
2023/05/05 01:59:58;;;;;;;4.03;1.37;;;8.50;99.90;;;;;;5052304;28;20202;-50
2023/05/05 02:02:28;;;;;;;2.17;1.40;;;8.50;99.90;;;;;;5074918;28;20237;-52
2023/05/05 02:04:56;;;;;;;4.53;1.67;;;8.50;99.90;;;;;;5073155;28;20220;-51
2023/05/05 02:07:25;;;;;;;2.23;1.33;;;8.50;99.90;;;;;;5082611;28;20306;-51
2023/05/05 02:09:54;;;;;;;7.67;1.60;;;8.50;99.90;;;;;;5079484;28;20218;-51
2023/05/05 02:12:22;;;;;;;6.80;1.57;;;8.50;99.90;;;;;;5074704;28;20197;-53
2023/05/05 02:14:50;;;;;;;4.87;2.00;;;8.50;99.90;;;;;;5066407;28;20196;-49
2023/05/05 02:17:19;;;;;;;3.30;1.33;;;8.50;99.90;;;;;;5070288;28;20248;-55
2023/05/05 02:19:51;;;;;;;3.63;1.50;;;8.50;99.90;;;;;;5079798;28;20286;-51
2023/05/05 02:22:18;;;;;;;5.07;1.80;;;8.50;99.90;;;;;;5067695;28;20201;-52
2023/05/05 02:24:45;;;;;;;3.60;1.30;;;8.50;99.90;;;;;;5078231;28;20222;-50
2023/05/05 02:27:15;;;;;;;6.07;1.83;;;8.50;99.90;;;;;;5070623;28;20874;-53
2023/05/05 02:29:48;;;;;;;3.37;1.50;;;8.50;99.90;;;;;;5074320;28;20190;-48
2023/05/05 02:32:20;;;;;;;6.17;1.97;;;8.50;99.90;;;;;;5075859;28;20321;-50
2023/05/05 02:34:50;;;;;;;3.90;1.90;;;8.50;99.90;;;;;;5084789;28;20247;-52
2023/05/05 02:37:21;;;;;;;4.10;2.10;;;8.50;99.90;;;;;;5076656;28;20568;-53
2023/05/05 02:39:57;;;;;;;1.90;1.60;;;8.40;99.90;;;;;;5071510;28;20198;-53
2023/05/05 02:42:29;;;;;;;6.03;1.73;;;8.40;99.90;;;;;;5081496;28;20197;-50
2023/05/05 02:44:59;;;;;;;3.70;1.80;;;8.40;99.90;;;;;;5081894;28;20293;-50
2023/05/05 02:47:33;;;;;;;3.23;1.77;;;8.30;99.90;;;;;;5057906;28;20217;-51
2023/05/05 02:50:02;;;;;;;2.97;1.80;;;8.30;99.90;;;;;;5081646;28;20187;-52
2023/05/05 02:52:30;;;;;;;6.23;1.97;;;8.30;99.90;;;;;;5076947;28;20194;-49
2023/05/05 02:54:57;;;;;;;3.40;1.70;;;8.30;99.90;;;;;;5067129;28;20902;-49
2023/05/05 02:57:31;;;;;;;4.43;1.87;;;8.30;99.90;;;;;;5083492;28;20225;-51
2023/05/05 03:00:05;;;;;;;3.03;1.60;;;8.30;99.90;;;;;;5079407;28;20535;-49
2023/05/05 03:02:43;;;;;;;4.73;2.10;;;8.30;99.90;;;;;;5059832;28;20980;-51
2023/05/05 03:05:19;;;;;;;2.93;2.00;;;8.20;99.90;;;;;;5082426;28;20190;-51
2023/05/05 03:07:54;;;;;;;3.13;1.70;;;8.20;99.90;;;;;;5075198;28;20215;-51
2023/05/05 03:10:29;;;;;;;6.30;2.40;;;8.20;99.90;;;;;;5069014;28;20558;-50
2023/05/05 03:13:01;;;;;;;3.57;2.53;;;8.10;99.90;;;;;;5080890;28;20581;-51
2023/05/05 03:15:40;;;;;;;4.23;2.20;;;8.10;99.90;;;;;;5085372;28;20193;-47
2023/05/05 03:18:09;;;;;;;3.10;2.00;;;8.10;99.90;;;;;;5062462;28;20219;-50
2023/05/05 03:20:39;;;;;;;5.87;2.47;;;8.10;99.90;;;;;;5079983;28;20684;-48
2023/05/05 03:23:09;;;;;;;2.27;2.07;;;8.00;99.90;;;;;;5074145;28;20953;-52
2023/05/05 03:25:44;;;;;;;3.27;2.10;;;8.00;99.90;;;;;;5074418;28;20566;-52
2023/05/05 03:28:15;;;;;;;7.60;2.57;;;8.00;99.90;;;;;;5081499;28;20213;-51
2023/05/05 03:30:43;;;;;;;4.50;2.57;;;8.00;99.90;;;;;;5086261;28;20209;-49
2023/05/05 03:33:12;;;;;;;9.17;2.60;;;8.00;99.90;;;;;;5059500;28;21466;-51
2023/05/05 03:35:42;;;;;;;8.17;2.70;;;8.00;99.90;;;;;;5051428;28;20949;-49
2023/05/05 03:38:12;;;;;;;3.60;2.27;;;7.90;99.90;;;;;;5077481;28;20214;-48
2023/05/05 03:40:39;;;;;;;8.63;2.97;;;7.90;99.90;;;;;;5076761;28;20190;-51
2023/05/05 03:43:06;;;;;;;4.03;2.50;;;7.90;99.90;;;;;;5083813;28;20201;-50
2023/05/05 03:45:33;;;;;;;3.90;2.47;;;7.90;99.90;;;;;;5076960;28;20371;-52
2023/05/05 03:48:01;;;;;;;6.13;2.47;;;7.90;99.90;;;;;;5075944;28;20210;-54
2023/05/05 03:50:52;;;;;;;6.63;2.87;;;7.90;99.90;;;;;;5072196;28;20613;-53
2023/05/05 03:53:21;;;;;;;5.93;3.03;;;7.90;99.90;;;;;;5079928;28;20194;-48
2023/05/05 03:55:49;;;;;;;6.77;2.80;;;7.80;99.90;;;;;;5070533;28;20217;-53
2023/05/05 03:58:16;;;;;;;4.43;3.20;;;7.80;99.90;;;;;;5082095;28;20294;-51
2023/05/05 04:00:43;;;;;;;6.97;3.37;;;7.80;99.90;;;;;;5083878;28;20950;-48
2023/05/05 04:03:10;;;;;;;6.17;3.33;;;7.80;99.90;;;;;;5074967;28;20220;-50
2023/05/05 04:06:01;;;;;;;5.93;3.23;;;7.80;99.90;;;;;;5059210;28;20217;-52
2023/05/05 04:08:30;;;;;;;6.67;3.40;;;7.80;99.90;;;;;;5070963;28;20349;-51
2023/05/05 04:10:57;;;;;;;8.30;3.60;;;7.80;99.90;;;;;;5070367;28;20226;-50
2023/05/05 04:13:24;;;;;;;6.97;3.60;;;7.80;99.90;;;;;;5077211;28;20265;-52
2023/05/05 04:15:51;;;;;;;7.60;3.53;;;7.80;99.90;;;;;;5071075;28;20208;-51
2023/05/05 04:18:19;;;;;;;4.77;3.70;;;7.80;99.90;;;;;;5072061;28;20237;-54
2023/05/05 04:20:47;;;;;;;6.07;3.80;;;7.80;99.90;;;;;;5069648;28;20297;-51
2023/05/05 04:23:15;;;;;;;8.07;3.97;;;7.80;99.90;;;;;;5077240;28;20217;-50
2023/05/05 04:25:43;;;;;;;6.00;3.73;;;7.90;99.90;;;;;;5077707;28;20193;-53
2023/05/05 04:28:12;;;;;;;5.23;3.47;;;7.90;99.90;;;;;;5073606;28;20226;-47
2023/05/05 04:30:39;;;;;;;7.20;4.47;;;7.90;99.90;;;;;;5069660;28;20179;-51
2023/05/05 04:33:06;;;;;;;8.77;4.50;;;7.90;99.90;;;;;;5076268;28;20198;-48
2023/05/05 04:35:34;;;;;;;7.53;4.47;;;7.90;99.90;;;;;;5056058;28;21110;-50
2023/05/05 04:38:01;;;;;;;8.87;4.40;;;8.00;99.90;;;;;;5079457;28;20316;-47
2023/05/05 04:40:30;;;;;;;7.13;4.40;;;8.00;99.90;;;;;;5075205;28;20277;-45
2023/05/05 04:43:19;;;;;;;10.87;4.53;;;8.00;99.90;;;;;;5067662;28;20279;-54
2023/05/05 04:45:53;;;;;;;14.90;4.67;;;8.00;99.90;;;;;;5071289;28;20365;-50
2023/05/05 04:48:21;;;;;;;7.23;4.70;;;8.00;99.90;;;;;;5074966;28;20244;-55
2023/05/05 04:50:49;;;;;;;7.47;4.47;;;8.10;99.90;;;;;;5057610;28;20206;-48
2023/05/05 04:53:16;;;;;;;6.43;4.63;;;8.10;99.90;;;;;;5067497;28;20203;-53
2023/05/05 04:55:44;;;;;;;9.17;4.97;;;8.10;99.90;;;;;;5081343;28;20936;-47
2023/05/05 04:58:11;;;;;;;9.13;5.10;;;8.10;99.90;;;;;;5066257;28;20230;-51
2023/05/05 05:00:38;;;;;;;9.17;4.63;;;8.10;99.90;;;;;;5073491;28;20190;-51
2023/05/05 05:03:06;;;;;;;10.87;4.90;;;8.20;99.90;;;;;;5082657;28;20199;-52
2023/05/05 05:05:34;;;;;;;8.60;5.27;;;8.20;99.90;;;;;;5083724;28;20201;-46
2023/05/05 05:08:01;;;;;;;6.87;3.97;;;8.30;99.90;;;;;;5062593;28;20703;-48
2023/05/05 05:10:27;;;;;;;10.43;4.97;;;8.30;99.90;;;;;;5073345;28;20193;-53
2023/05/05 05:12:56;;;;;;;9.33;5.10;;;8.30;99.90;;;;;;5063262;28;20216;-53
2023/05/05 05:15:23;;;;;;;7.40;5.07;;;8.40;99.90;;;;;;5074957;28;21012;-55
2023/05/05 05:17:50;;;;;;;10.33;5.40;;;8.40;99.90;;;;;;5081504;28;20206;-46
2023/05/05 05:20:18;;;;;;;10.90;5.83;;;8.50;99.90;;;;;;5077351;28;20258;-53
2023/05/05 05:22:45;;;;;;;10.13;4.87;;;8.50;99.90;;;;;;5059703;28;20692;-47
2023/05/05 05:25:16;;;;;;;8.20;5.07;;;8.50;99.90;;;;;;5067614;28;20787;-55
2023/05/05 05:27:43;;;;;;;8.10;4.83;;;8.50;99.90;;;;;;5061604;28;21088;-54
2023/05/05 05:30:13;;;;;;;9.90;5.20;;;8.60;99.90;;;;;;5070265;28;20228;-52
2023/05/05 05:32:40;;;;;;;9.07;4.93;;;8.50;99.90;;;;;;5080768;28;20198;-48
2023/05/05 05:35:08;;;;;;;6.23;4.60;;;8.60;99.90;;;;;;5065256;28;20206;-51
2023/05/05 05:37:35;;;;;;;8.60;4.17;;;8.60;99.90;;;;;;5056096;28;20236;-51
2023/05/05 05:40:04;;;;;;;8.03;4.60;;;8.50;99.90;;;;;;5064007;28;20197;-53
2023/05/05 05:42:33;;;;;;;7.47;5.00;;;8.60;99.90;;;;;;5078533;28;20201;-53
2023/05/05 05:45:00;;;;;;;9.33;4.73;;;8.60;99.90;;;;;;5067929;28;20656;-53
2023/05/05 05:47:47;;;;;;;8.33;4.60;;;8.60;99.90;;;;;;5080999;28;20224;-54
2023/05/05 05:50:15;;;;;;;6.70;4.53;;;8.60;99.90;;;;;;5080099;28;20185;-48
2023/05/05 05:52:42;;;;;;;10.40;4.63;;;8.60;99.90;;;;;;5065610;28;20193;-52
2023/05/05 05:55:09;;;;;;;8.23;4.40;;;8.70;99.90;;;;;;5053004;28;20198;-47
2023/05/05 05:57:39;;;;;;;7.07;4.63;;;8.70;99.90;;;;;;5078523;28;20233;-50
2023/05/05 06:00:10;;;;;;;9.97;5.00;;;8.80;99.90;;;;;;5069037;28;20186;-51
2023/05/05 06:02:43;;;;;;;8.10;4.40;;;8.90;99.90;;;;;;5080376;28;20284;-50
2023/05/05 06:05:16;;;;;;;10.07;5.13;;;8.90;99.90;;;;;;5071911;28;20907;-49
2023/05/05 06:07:44;;;;;;;8.80;4.70;;;9.00;99.90;;;;;;5059592;28;20253;-55
2023/05/05 06:10:11;;;;;;;4.60;3.93;;;9.10;99.90;;;;;;5053110;28;20205;-45
2023/05/05 06:12:40;;;;;;;9.60;4.53;;;9.20;99.90;;;;;;5075845;28;20251;-47
2023/05/05 06:15:07;;;;;;;11.93;4.53;;;9.30;99.90;;;;;;5066844;28;20345;-51
2023/05/05 06:17:35;;;;;;;5.23;4.57;;;9.40;99.90;;;;;;5079485;28;20217;-48
2023/05/05 06:20:04;;;;;;;14.03;4.53;;;9.60;99.90;;;;;;5053877;28;20221;-50
2023/05/05 06:22:32;;;;;;;6.80;4.40;;;9.70;99.90;;;;;;5065055;28;20285;-48
2023/05/05 06:25:00;;;;;;;7.50;5.30;;;9.80;99.90;;;;;;5048334;28;20309;-52
2023/05/05 06:27:27;;;;;;;4.93;4.40;;;9.90;99.90;;;;;;5061770;28;20222;-47
2023/05/05 06:29:55;;;;;;;9.27;3.70;;;10.00;99.90;;;;;;5070657;28;20200;-55
2023/05/05 06:32:22;;;;;;;10.00;4.53;;;10.10;99.90;;;;;;5066785;28;20263;-46
2023/05/05 06:34:49;;;;;;;10.47;4.20;;;10.20;99.90;;;;;;5065874;28;20688;-53
2023/05/05 06:37:35;;;;;;;5.97;4.23;;;10.20;99.90;;;;;;5062638;28;20229;-47
2023/05/05 06:40:02;;;;;;;6.23;3.73;;;10.30;99.90;;;;;;5052278;28;20275;-51
2023/05/05 06:42:49;;;;;;;7.37;3.80;;;10.40;99.90;;;;;;5069526;28;20258;-46
2023/05/05 06:45:21;;;;;;;6.90;3.60;;;10.50;99.90;;;;;;5078552;28;20217;-48
2023/05/05 06:47:48;;;;;;;8.37;4.20;;;10.60;99.90;;;;;;5065336;28;20226;-48
2023/05/05 06:50:15;;;;;;;9.23;4.10;;;10.80;99.90;;;;;;5067946;28;20266;-47
2023/05/05 06:52:43;;;;;;;6.93;3.80;;;10.90;99.90;;;;;;5078475;28;20190;-50
2023/05/05 06:55:10;;;;;;;5.97;4.40;;;10.90;99.90;;;;;;5056985;28;20202;-54
2023/05/05 06:57:37;;;;;;;8.13;4.20;;;11.00;99.90;;;;;;5074507;28;20237;-46
2023/05/05 07:00:08;;;;;;;9.97;4.30;;;11.10;99.90;;;;;;5070115;28;20285;-53
2023/05/05 07:02:55;;;;;;;6.40;3.80;;;11.20;99.90;;;;;;5062623;28;20347;-51
2023/05/05 07:05:22;;;;;;;6.43;4.20;;;11.30;99.90;;;;;;5062779;28;20221;-55
2023/05/05 07:07:54;;;;;;;3.90;3.03;;;11.50;99.90;;;;;;5080852;28;20213;-49
2023/05/05 07:10:23;;;;;;;6.90;3.73;;;11.60;99.90;;;;;;5045276;28;20198;-52
2023/05/05 07:12:50;;;;;;;7.50;3.70;;;11.80;99.90;;;;;;5073230;28;20940;-47
2023/05/05 07:15:17;;;;;;;8.13;4.47;;;11.90;99.90;;;;;;5068429;28;20193;-52
2023/05/05 07:17:44;;;;;;;6.80;3.53;;;11.80;99.90;;;;;;5071629;28;20218;-52
2023/05/05 07:20:11;;;;;;;6.90;3.80;;;11.80;99.90;;;;;;5068713;28;20286;-50
2023/05/05 07:22:38;;;;;;;6.53;3.17;;;11.90;99.90;;;;;;5079131;28;20204;-51
2023/05/05 07:25:08;;;;;;;8.00;3.50;;;12.00;99.90;;;;;;5069536;28;20218;-53
2023/05/05 07:27:36;;;;;;;8.80;3.20;;;12.10;99.90;;;;;;5064070;28;20229;-50
2023/05/05 07:30:03;;;;;;;6.17;3.97;;;12.20;99.90;;;;;;5074776;28;20187;-53
2023/05/05 07:32:30;;;;;;;6.10;3.97;;;12.20;99.90;;;;;;5069865;28;20202;-47
2023/05/05 07:34:57;;;;;;;7.60;4.00;;;12.20;99.90;;;;;;5078600;28;20194;-53
2023/05/05 07:37:24;;;;;;;5.50;3.60;;;12.20;99.90;;;;;;5076503;28;20960;-45
2023/05/05 07:39:51;;;;;;;3.53;3.23;;;12.20;99.90;;;;;;5076923;28;20224;-53
2023/05/05 07:42:20;;;;;;;6.33;3.57;;;12.20;99.90;;;;;;5052704;28;24774;-51
2023/05/05 07:44:47;;;;;;;8.17;3.80;;;12.30;99.90;;;;;;5072993;28;20998;-50
2023/05/05 07:47:14;;;;;;;6.33;3.50;;;12.30;99.90;;;;;;5077551;28;20197;-50
2023/05/05 07:49:40;;;;;;;5.80;3.40;;;12.30;99.90;;;;;;5074606;28;20339;-46
2023/05/05 07:52:07;;;;;;;8.63;3.83;;;12.30;99.90;;;;;;5072176;28;20217;-54
2023/05/05 07:54:35;;;;;;;7.30;3.90;;;12.40;99.90;;;;;;5078883;28;20187;-47
2023/05/05 07:57:01;;;;;;;8.50;3.67;;;12.40;99.90;;;;;;5059342;28;20740;-53
2023/05/05 07:59:30;;;;;;;7.57;3.90;;;12.50;99.90;;;;;;5068374;28;20281;-51
2023/05/05 08:01:56;;;;;;;5.93;3.50;;;12.60;99.90;;;;;;5076686;28;20665;-50
2023/05/05 08:04:23;;;;;;;6.87;3.90;;;12.70;99.90;;;;;;5071582;28;20226;-47
2023/05/05 08:06:50;;;;;;;7.30;4.30;;;12.70;99.90;;;;;;5076906;28;20194;-53
2023/05/05 08:09:16;;;;;;;7.67;3.77;;;12.70;99.90;;;;;;5075622;28;20932;-52
2023/05/05 08:11:43;;;;;;;7.97;3.70;;;12.70;99.90;;;;;;5071101;28;20217;-52
2023/05/05 08:14:10;;;;;;;6.17;3.70;;;12.80;99.90;;;;;;5052307;28;20218;-46
2023/05/05 08:16:38;;;;;;;6.23;3.07;;;12.90;99.90;;;;;;5083973;28;20186;-45
2023/05/05 08:19:04;;;;;;;4.00;3.30;;;12.90;99.90;;;;;;5073410;28;20233;-56
2023/05/05 08:21:31;;;;;;;8.27;3.30;;;13.00;99.90;;;;;;5072218;28;20209;-53
2023/05/05 08:23:58;;;;;;;6.30;3.60;;;13.00;99.90;;;;;;5082173;28;20201;-54
2023/05/05 08:26:25;;;;;;;6.60;3.63;;;13.10;99.90;;;;;;5068169;28;20310;-50
2023/05/05 08:28:54;;;;;;;7.70;4.10;;;13.10;99.90;;;;;;5058740;28;20233;-52
2023/05/05 08:31:21;;;;;;;5.03;3.13;;;13.20;99.90;;;;;;5080296;28;20205;-47
2023/05/05 08:33:50;;;;;;;7.30;3.23;;;13.20;99.90;;;;;;5081062;28;20202;-47
2023/05/05 08:36:17;;;;;;;7.43;3.33;;;13.40;99.90;;;;;;5071305;28;20258;-54
2023/05/05 08:38:43;;;;;;;6.40;3.70;;;13.50;99.90;;;;;;5064747;28;21153;-51
2023/05/05 08:41:13;;;;;;;10.40;3.57;;;13.70;99.90;;;;;;5060912;28;20201;-52
2023/05/05 08:43:40;;;;;;;5.47;3.20;;;13.90;99.90;;;;;;5062837;28;20214;-49
2023/05/05 08:46:11;;;;;;;5.13;3.33;;;14.10;99.90;;;;;;5072584;28;20214;-56
2023/05/05 08:48:40;;;;;;;8.40;3.67;;;14.20;99.90;;;;;;5078580;28;20224;-52
2023/05/05 08:51:09;;;;;;;6.00;3.53;;;14.20;99.90;;;;;;5070482;28;20198;-49
2023/05/05 08:53:48;;;;;;;7.43;3.43;;;14.30;99.90;;;;;;5068324;28;20206;-49
2023/05/05 08:56:16;;;;;;;4.77;3.37;;;14.30;99.90;;;;;;5067806;28;20359;-55
2023/05/05 08:58:45;;;;;;;5.13;3.60;;;14.40;99.90;;;;;;5058049;28;20571;-52
2023/05/05 09:01:13;;;;;;;4.53;2.90;;;14.40;99.90;;;;;;5076107;28;20797;-50
2023/05/05 09:03:40;;;;;;;4.87;3.33;;;14.50;99.90;;;;;;5075660;28;20284;-53
2023/05/05 09:06:09;;;;;;;6.57;3.70;;;14.50;99.90;;;;;;5060820;28;20685;-49
2023/05/05 09:08:37;;;;;;;3.57;3.00;;;14.40;99.90;;;;;;5066498;28;20807;-52
2023/05/05 09:11:04;;;;;;;9.03;3.90;;;14.30;99.90;;;;;;5077916;28;20549;-53
2023/05/05 09:13:32;;;;;;;6.63;3.70;;;14.30;99.90;;;;;;5071598;28;20214;-47
2023/05/05 09:15:59;;;;;;;8.43;3.90;;;14.20;99.90;;;;;;5056751;28;20205;-53
2023/05/05 09:18:27;;;;;;;5.80;3.70;;;14.20;99.90;;;;;;5073756;28;20253;-56
2023/05/05 09:20:54;;;;;;;5.27;3.30;;;14.30;99.90;;;;;;5072469;28;20190;-51
2023/05/05 09:23:22;;;;;;;6.20;3.30;;;14.30;99.90;;;;;;5053483;28;20207;-55
2023/05/05 09:26:03;;;;;;;5.43;3.27;;;14.40;99.90;;;;;;5072802;28;20221;-49
2023/05/05 09:28:31;;;;;;;8.23;3.73;;;14.40;99.90;;;;;;5064281;28;20230;-50
2023/05/05 09:31:12;;;;;;;4.53;3.37;;;14.50;99.90;;;;;;5061515;28;20198;-50
2023/05/05 09:33:39;;;;;;;7.13;3.27;;;14.60;99.90;;;;;;5068632;28;20906;-54
2023/05/05 09:36:06;;;;;;;5.07;3.23;;;14.60;99.90;;;;;;5074642;28;20723;-50
2023/05/05 09:38:35;;;;;;;4.53;3.57;;;14.70;99.90;;;;;;5062734;28;20218;-51
2023/05/05 09:41:02;;;;;;;5.23;3.50;;;14.80;99.90;;;;;;5080080;28;20251;-50
2023/05/05 09:43:29;;;;;;;4.60;3.37;;;14.90;99.90;;;;;;5076507;28;20202;-53
2023/05/05 09:46:06;;;;;;;6.00;3.27;;;14.90;99.90;;;;;;5061368;28;20210;-49
2023/05/05 09:48:33;;;;;;;6.23;3.30;;;15.10;99.90;;;;;;5075189;28;20210;-51
2023/05/05 09:51:00;;;;;;;7.17;3.47;;;15.00;99.90;;;;;;5076447;28;20267;-53
2023/05/05 09:53:37;;;;;;;6.87;3.70;;;15.00;99.90;;;;;;5077285;28;20229;-50
2023/05/05 09:56:07;;;;;;;3.77;2.97;;;14.90;99.90;;;;;;5077793;28;20214;-53
2023/05/05 09:58:33;;;;;;;6.67;3.40;;;14.80;99.90;;;;;;5063621;28;20222;-51
2023/05/05 10:01:00;;;;;;;6.73;3.77;;;14.70;99.90;;;;;;5051060;28;22192;-50
2023/05/05 10:03:27;;;;;;;6.33;3.23;;;14.60;99.90;;;;;;5075144;28;20186;-51
2023/05/05 10:05:55;;;;;;;10.47;3.20;;;14.50;99.90;;;;;;5068777;28;20276;-49
2023/05/05 10:08:24;;;;;;;9.33;3.60;;;14.50;99.90;;;;;;5060696;28;20230;-50
2023/05/05 10:10:52;;;;;;;4.97;3.47;;;14.50;99.90;;;;;;5074813;28;20238;-49
2023/05/05 10:13:22;;;;;;;3.93;2.70;;;14.50;99.90;;;;;;5069024;28;20965;-53
2023/05/05 10:15:51;;;;;;;7.03;3.33;;;14.60;99.90;;;;;;5057605;28;20209;-51
2023/05/05 10:18:21;;;;;;;7.40;3.50;;;14.60;99.90;;;;;;5055592;28;20257;-51
2023/05/05 10:20:52;;;;;;;3.37;3.07;;;14.70;99.90;;;;;;5074546;28;20277;-50
2023/05/05 10:23:21;;;;;;;7.50;3.03;;;14.80;99.90;;;;;;5067457;28;20214;-49
2023/05/05 10:25:53;;;;;;;6.17;3.50;;;14.90;99.90;;;;;;5074123;28;20575;-49
2023/05/05 10:28:28;;;;;;;5.70;3.50;;;14.90;99.90;;;;;;5074301;28;20852;-50
2023/05/05 10:30:58;;;;;;;4.30;3.27;;;15.00;99.90;;;;;;5068948;28;20330;-51
2023/05/05 10:33:33;;;;;;;4.97;3.00;;;15.10;99.90;;;;;;5057007;28;20224;-51
2023/05/05 10:36:04;;;;;;;3.80;2.47;;;15.30;99.90;;;;;;5077477;28;20190;-51
2023/05/05 10:38:32;;;;;;;6.10;2.67;;;15.40;99.90;;;;;;5070601;28;20923;-51
2023/05/05 10:41:00;;;;;;;5.17;2.60;;;15.60;99.90;;;;;;5071846;28;20581;-52
2023/05/05 10:43:48;;;;;;;7.17;3.03;;;15.70;99.90;;;;;;5070099;28;20201;-51
2023/05/05 10:46:15;;;;;;;3.87;2.83;;;15.80;99.90;;;;;;5057485;28;21050;-51
2023/05/05 10:48:47;;;;;;;4.53;2.80;;;;;;;;;;5057878;28;20241;-52
2023/05/05 10:51:26;;;;;;;4.00;3.00;;;16.00;99.90;;;;;;5067934;28;20194;-49
2023/05/05 10:54:00;;;;;;;7.23;3.17;;;16.20;99.90;;;;;;5074754;28;20208;-48
2023/05/05 10:56:31;;;;;;;3.70;2.40;;;16.40;99.90;;;;;;5084998;28;20197;-53
2023/05/05 10:58:59;;;;;;;3.10;2.80;;;16.50;99.90;;;;;;5071415;28;20210;-54
2023/05/05 11:01:32;;;;;;;8.40;3.07;;;16.60;99.90;;;;;;5073074;28;20217;-49
2023/05/05 11:04:19;;;;;;;7.57;3.20;;;16.90;99.90;;;;;;5060281;28;20256;-55
2023/05/05 11:07:21;;;;;;;2.97;2.73;;;17.00;99.90;;;;;;5076224;28;20218;-55
2023/05/05 11:09:56;;;;;;;7.60;2.83;;;17.10;99.90;;;;;;5077231;28;20193;-53
2023/05/05 11:12:23;;;;;;;3.53;2.63;;;17.30;99.70;;;;;;5076415;28;20188;-50
2023/05/05 11:15:32;;;;;;;5.43;3.33;;;17.40;99.80;;;;;;5077631;28;20194;-55
2023/05/05 11:18:01;;;;;;;7.83;3.40;;;17.50;99.00;;;;;;5023204;28;20936;-53
2023/05/05 11:21:01;;;;;;;2.97;2.67;;;17.50;98.60;;;;;;5077921;28;20202;-51
2023/05/05 11:23:29;;;;;;;5.10;2.63;;;17.50;98.70;;;;;;5081578;28;20284;-51
2023/05/05 11:25:57;;;;;;;8.13;2.97;;;17.60;98.50;;;;;;5059140;28;20621;-51
2023/05/05 11:28:27;;;;;;;6.13;2.80;;;17.60;98.10;;;;;;5076768;28;20220;-50
2023/05/05 11:31:17;;;;;;;6.40;3.30;;;17.60;98.10;;;;;;5084339;28;20201;-47
2023/05/05 11:33:46;;;;;;;3.47;2.47;;;17.70;96.30;;;;;;5059636;28;20216;-51
2023/05/05 11:36:14;;;;;;;5.23;2.60;;;17.70;97.80;;;;;;5084368;28;20730;-55
2023/05/05 11:39:07;;;;;;;5.40;2.93;;;17.80;97.60;;;;;;5046073;28;20218;-52
2023/05/05 11:42:07;;;;;;;3.37;2.63;;;17.70;96.30;;;;;;5073745;28;20206;-51
2023/05/05 11:44:34;;;;;;;3.40;2.70;;;17.60;96.40;;;;;;5075333;28;20279;-51
2023/05/05 11:47:30;;;;;;;4.50;2.90;;;17.60;97.00;;;;;;5073135;28;20546;-56
2023/05/05 11:50:14;;;;;;;5.90;2.50;;;17.60;96.50;;;;;;5064408;28;20287;-54
2023/05/05 11:52:41;;;;;;;5.03;2.60;;;17.50;96.40;;;;;;5066509;28;20194;-48
2023/05/05 11:55:08;;;;;;;6.70;2.53;;;17.40;96.70;;;;;;5062521;28;20236;-51
2023/05/05 11:57:35;;;;;;;2.90;2.67;;;17.40;96.60;;;;;;5081858;28;20230;-47
2023/05/05 12:00:05;;;;;;;3.13;2.83;;;17.40;96.70;;;;;;5082515;28;20618;-55
2023/05/05 12:02:31;;;;;;;6.93;3.83;;;17.40;96.50;;;;;;5073548;28;20318;-48
2023/05/05 12:05:00;;;;;;;4.30;2.73;;;17.30;96.10;;;;;;5061122;28;21088;-56
2023/05/05 12:07:30;;;;;;;4.73;2.33;;;17.20;96.20;;;;;;5070337;28;20225;-54
2023/05/05 12:09:57;;;;;;;7.87;2.43;;;17.10;96.30;;;;;;5067344;28;20201;-56
2023/05/05 12:12:34;;;;;;;5.07;2.60;;;17.00;96.40;;;;;;5076715;28;20206;-45
2023/05/05 12:15:01;;;;;;;5.53;2.63;;;16.90;96.10;;;;;;5084333;28;20202;-55
2023/05/05 12:17:37;;;;;;;9.10;3.53;;;16.90;97.10;;;;;;5074285;28;20218;-52
2023/05/05 12:20:07;;;;;;;3.80;2.70;;;16.80;97.60;;;;;;5056893;28;20262;-53
2023/05/05 12:22:35;;;;;;;5.90;3.13;;;16.70;97.50;;;;;;5078341;28;20205;-54
2023/05/05 12:25:03;;;;;;;4.23;2.53;;;16.60;97.90;;;;;;5074466;28;20198;-49
2023/05/05 12:27:30;;;;;;;5.03;2.73;;;16.50;98.30;;;;;;5075304;28;20218;-49
2023/05/05 12:30:10;;;;;;;5.53;2.53;;;16.50;98.30;;;;;;5077888;28;20198;-52
2023/05/05 12:32:37;;;;;;;4.87;2.37;;;16.40;98.10;;;;;;5078094;28;20426;-47
2023/05/05 12:35:06;;;;;;;3.13;2.53;;;16.30;98.50;;;;;;5048428;28;20206;-50
2023/05/05 12:37:34;;;;;;;4.87;2.70;;;16.30;99.30;;;;;;5066149;28;20218;-48
2023/05/05 12:40:00;;;;;;;5.73;3.00;;;16.30;99.90;;;;;;5068975;28;20735;-54
2023/05/05 12:42:28;;;;;;;7.23;2.87;;;16.20;99.80;;;;;;5061189;28;20206;-46
2023/05/05 12:44:55;;;;;;;5.47;2.60;;;16.20;99.90;;;;;;5069509;28;20198;-56
2023/05/05 12:47:32;;;;;;;5.43;2.60;;;16.10;99.90;;;;;;5080153;28;20217;-52
2023/05/05 12:50:01;;;;;;;4.20;3.10;;;16.10;99.90;;;;;;5056127;28;20965;-47
2023/05/05 12:52:44;;;;;;;4.33;2.80;;;16.00;99.90;;;;;;5064800;28;20218;-52
2023/05/05 12:55:12;;;;;;;3.87;2.47;;;15.90;99.90;;;;;;5077511;28;20903;-48
2023/05/05 12:57:39;;;;;;;4.27;2.67;;;15.90;99.90;;;;;;5067378;28;20576;-48
2023/05/05 13:00:14;;;;;;;3.53;3.20;;;15.90;99.90;;;;;;5074781;28;20780;-51
2023/05/05 13:02:42;;;;;;;3.60;2.40;;;15.90;99.90;;;;;;5074330;28;20318;-49
2023/05/05 13:05:09;;;;;;;4.60;2.70;;;15.90;99.90;;;;;;5071340;28;20284;-51
2023/05/05 13:07:48;;;;;;;5.00;2.90;;;15.90;99.90;;;;;;5061418;28;20214;-50
2023/05/05 13:10:17;;;;;;;3.13;2.07;;;16.00;99.90;;;;;;5081791;28;20193;-49